Wilbur Observed Data For Previous 48 Hours

Caption
Day and Hour Reservoir Elevation (behind dam)* Tailwater Elevation (below dam)* Average Hourly Discharge*
9/20/2018 2 AM EDT 1,649.24 1,582.78 251
9/20/2018 3 AM EDT 1,649.03 1,582.77 250
9/20/2018 4 AM EDT 1,648.81 1,582.76 249
9/20/2018 5 AM EDT 1,648.62 1,582.76 245
9/20/2018 6 AM EDT 1,648.42 1,582.75 245
9/20/2018 7 AM EDT 1,649.32 1,582.78 248
9/20/2018 8 AM EDT 1,649.05 1,582.77 250
9/20/2018 9 AM EDT 1,648.87 1,582.77 250
9/20/2018 10 AM EDT 1,648.68 1,582.76 246
9/20/2018 11 AM EDT 1,648.35 1,584.14 248
9/20/2018 12 PM EDT 1,647.76 1,585.58 1,736
9/20/2018 1 PM EDT 1,647.11 1,585.58 1,747
9/20/2018 2 PM EDT 1,646.07 1,586.69 2,692
9/20/2018 3 PM EDT 1,646.24 1,586.62 2,587
9/20/2018 4 PM EDT 1,646.37 1,586.65 2,588
9/20/2018 5 PM EDT 1,646.50 1,586.65 2,598
9/20/2018 6 PM EDT 1,646.63 1,586.68 2,596
9/20/2018 7 PM EDT 1,646.75 1,586.14 2,690
9/20/2018 8 PM EDT 1,646.58 1,585.37 1,646
9/20/2018 9 PM EDT 1,646.37 1,585.45 1,611
9/20/2018 10 PM EDT 1,646.18 1,585.37 1,614
9/20/2018 11 PM EDT 1,645.95 1,585.43 1,624
9/21/2018 12 AM EDT 1,647.38 1,582.71 245
9/21/2018 1 AM EDT 1,648.70 1,582.73 240
9/21/2018 2 AM EDT 1,649.22 1,582.75 249
9/21/2018 3 AM EDT 1,649.02 1,582.74 250
9/21/2018 4 AM EDT 1,648.83 1,582.73 250
9/21/2018 5 AM EDT 1,648.64 1,582.72 245
9/21/2018 6 AM EDT 1,648.44 1,582.71 245
9/21/2018 7 AM EDT 1,648.24 1,582.71 244
9/21/2018 8 AM EDT 1,648.04 1,582.70 240
9/21/2018 9 AM EDT 1,647.83 1,582.70 240
9/21/2018 10 AM EDT 1,647.63 1,582.69 238
9/21/2018 11 AM EDT 1,647.43 1,582.69 235
9/21/2018 12 PM EDT 1,648.60 1,583.82 240
9/21/2018 1 PM EDT 1,648.04 1,585.60 1,718
9/21/2018 2 PM EDT 1,647.85 1,586.82 2,775
9/21/2018 3 PM EDT 1,647.70 1,586.80 2,772
9/21/2018 4 PM EDT 1,647.57 1,586.81 2,769
9/21/2018 5 PM EDT 1,647.45 1,586.78 2,763
9/21/2018 6 PM EDT 1,647.31 1,586.79 2,751
9/21/2018 7 PM EDT 1,647.36 1,586.23 2,743
9/21/2018 8 PM EDT 1,646.78 1,585.60 1,756
9/21/2018 9 PM EDT 1,646.04 1,585.60 1,747
9/21/2018 10 PM EDT 1,647.38 1,582.84 265
9/21/2018 11 PM EDT 1,648.68 1,582.87 240
9/22/2018 12 AM EDT 1,649.30 1,582.89 249
9/22/2018 1 AM EDT 1,648.99 1,582.88 250
9/22/2018 2 AM EDT 1,648.75 1,582.87 248
9/22/2018 3 AM EDT 1,648.54 1,582.87 245
9/22/2018 4 AM EDT 1,648.30 1,582.86 245
9/22/2018 5 AM EDT 1,648.07 1,582.85 241
9/22/2018 6 AM EDT 1,647.84 1,582.84 240
9/22/2018 7 AM EDT 1,647.60 1,582.83 238
9/22/2018 8 AM EDT 1,647.37 1,582.82 235
9/22/2018 9 AM EDT 1,647.12 1,582.82 234
9/22/2018 10 AM EDT 1,646.89 1,582.81 230
9/22/2018 11 AM EDT 1,646.64 1,582.80 230
9/22/2018 12 PM EDT 1,647.86 1,582.84 233
9/22/2018 1 PM EDT 1,649.06 1,583.92 244
9/22/2018 2 PM EDT 1,648.45 1,585.63 1,728
9/22/2018 3 PM EDT 1,647.76 1,585.64 1,758
9/22/2018 4 PM EDT 1,647.08 1,585.62 1,751
9/22/2018 5 PM EDT 1,646.35 1,585.62 1,746

Elevations are in feet above sea level. Discharges are in cubic feet per second and are reported at the end of the hour.